Time;durP1;ratioP1;P1;durP2;ratioP2;P2;SDS_P1;SDS_P2;PMS_P1;PMS_P2;Temp;Humidity;BMP_temperature;BMP_pressure;BME280_temperature;BME280_humidity;BME280_pressure;Samples;Min_cycle;Max_cycle;Signal;HPM_P1;HPM_P2
2021/12/22 00:02:10;;;;;;;27.98;13.50;;;-2.30;88.60;;;;;;5038427;28;20029;-79
2021/12/22 00:04:44;;;;;;;26.90;13.68;;;-2.30;88.80;;;;;;5038543;28;20482;-79
2021/12/22 00:07:14;;;;;;;23.95;11.27;;;-2.20;89.50;;;;;;5038545;28;20325;-79
2021/12/22 00:09:41;;;;;;;27.30;11.85;;;-2.20;89.20;;;;;;5037296;28;20028;-78
2021/12/22 00:12:08;;;;;;;27.20;12.27;;;-2.30;89.80;;;;;;5038284;28;20396;-78
2021/12/22 00:14:34;;;;;;;20.67;11.25;;;-2.30;89.00;;;;;;5038065;28;20143;-79
2021/12/22 00:17:00;;;;;;;25.35;11.65;;;-2.30;89.30;;;;;;5038122;28;20120;-78
2021/12/22 00:19:26;;;;;;;26.25;11.93;;;-2.20;89.50;;;;;;5038171;28;20339;-78
2021/12/22 00:21:52;;;;;;;27.15;12.18;;;-2.30;90.00;;;;;;5036723;28;20124;-79
2021/12/22 00:24:18;;;;;;;29.05;14.35;;;-2.20;89.90;;;;;;5037232;28;20298;-78
2021/12/22 00:26:43;;;;;;;27.35;12.38;;;-2.30;90.00;;;;;;5037583;28;20032;-78
2021/12/22 00:29:10;;;;;;;31.17;14.32;;;-2.20;90.60;;;;;;5038664;28;20376;-79
2021/12/22 00:31:43;;;;;;;28.42;13.18;;;-2.30;90.20;;;;;;5036892;28;20021;-78
2021/12/22 00:34:16;;;;;;;47.15;21.20;;;-2.20;90.00;;;;;;5052812;28;20098;-78
2021/12/22 00:36:43;;;;;;;31.08;14.55;;;-2.10;89.70;;;;;;5055796;28;20461;-78
2021/12/22 00:39:09;;;;;;;38.25;17.33;;;-1.70;90.00;;;;;;5056790;28;20026;-78
2021/12/22 00:41:40;;;;;;;56.55;22.55;;;-1.50;90.20;;;;;;5053262;28;20094;-77
2021/12/22 00:44:06;;;;;;;43.90;18.45;;;-2.10;89.60;;;;;;5037677;28;20033;-79
2021/12/22 00:46:39;;;;;;;82.15;28.58;;;-1.90;89.50;;;;;;5039066;28;20300;-78
2021/12/22 00:49:05;;;;;;;61.55;22.40;;;-2.30;89.50;;;;;;5038659;28;20025;-79
2021/12/22 00:51:30;;;;;;;46.28;18.13;;;-2.20;89.10;;;;;;5038008;28;20032;-78
2021/12/22 00:53:56;;;;;;;60.60;21.90;;;-2.20;88.90;;;;;;5038052;28;20120;-78
2021/12/22 00:56:24;;;;;;;98.32;32.22;;;-2.20;89.20;;;;;;5036803;28;20121;-78
2021/12/22 00:58:50;;;;;;;47.85;19.10;;;-1.60;89.60;;;;;;5036676;28;20035;-78
2021/12/22 01:01:15;;;;;;;92.35;33.25;;;-2.20;88.70;;;;;;5038046;28;20197;-78
2021/12/22 01:03:41;;;;;;;58.72;22.63;;;-2.10;89.30;;;;;;5037793;28;20083;-77
2021/12/22 01:06:07;;;;;;;44.92;17.75;;;-2.30;89.00;;;;;;5037697;28;20029;-77
2021/12/22 01:08:32;;;;;;;52.08;21.48;;;-1.20;89.50;;;;;;5037793;28;20464;-79
2021/12/22 01:10:58;;;;;;;77.28;31.33;;;-2.10;89.00;;;;;;5037603;28;20036;-78
2021/12/22 01:13:24;;;;;;;91.95;33.97;;;-2.10;88.90;;;;;;5037879;28;20358;-78
2021/12/22 01:15:52;;;;;;;121.57;47.50;;;-2.10;88.90;;;;;;5038144;28;20247;-78
2021/12/22 01:18:30;;;;;;;54.13;22.50;;;-1.60;89.50;;;;;;5036631;28;20033;-78
2021/12/22 01:24:01;;;;;;;105.97;42.17;;;-1.00;88.90;;;;;;5037865;28;20021;-78
2021/12/22 01:26:31;;;;;;;123.05;47.35;;;-1.90;89.10;;;;;;5038170;28;20418;-79
2021/12/22 01:28:57;;;;;;;114.68;43.60;;;-1.80;89.60;;;;;;5037824;28;20086;-79
2021/12/22 01:31:23;;;;;;;141.82;49.58;;;-2.00;89.50;;;;;;5037813;28;20055;-79
2021/12/22 01:33:49;;;;;;;126.82;48.20;;;-2.00;89.50;;;;;;5036728;28;20021;-78
2021/12/22 01:36:15;;;;;;;95.95;39.15;;;-1.90;89.10;;;;;;5037692;28;20221;-79
2021/12/22 01:38:41;;;;;;;66.68;28.67;;;-1.90;88.80;;;;;;5039831;28;20390;-78
2021/12/22 01:41:07;;;;;;;61.88;27.67;;;-1.90;88.30;;;;;;5041645;28;20025;-78
2021/12/22 01:43:32;;;;;;;40.40;18.98;;;-1.50;88.70;;;;;;5041401;28;20025;-78
2021/12/22 01:51:38;;;;;;;45.88;19.45;;;-1.80;88.60;;;;;;5041549;28;20035;-79
2021/12/22 01:54:51;;;;;;;66.35;27.20;;;-1.80;88.10;;;;;;5041153;28;20102;-77
2021/12/22 01:57:18;;;;;;;148.40;65.45;;;-1.80;88.40;;;;;;4976875;28;20042;-79
2021/12/22 01:59:46;;;;;;;70.10;31.35;;;-1.80;88.60;;;;;;4962709;28;20027;-78
2021/12/22 02:02:14;;;;;;;61.42;28.23;;;-1.80;88.90;;;;;;4962901;28;20081;-78
2021/12/22 02:04:41;;;;;;;50.95;24.13;;;-1.60;89.10;;;;;;4978692;28;20204;-78
2021/12/22 02:07:08;;;;;;;54.22;27.33;;;-1.70;88.70;;;;;;4978699;28;20319;-78
2021/12/22 02:10:06;;;;;;;33.45;15.75;;;-1.70;88.60;;;;;;4978877;28;20057;-78
2021/12/22 02:12:46;;;;;;;151.02;58.28;;;-0.60;89.60;;;;;;4979244;28;20023;-78
2021/12/22 02:15:12;;;;;;;95.75;35.35;;;-1.70;88.80;;;;;;4979096;28;20034;-79
2021/12/22 02:17:39;;;;;;;85.05;32.00;;;-1.70;88.70;;;;;;4978630;28;20108;-78
2021/12/22 02:20:06;;;;;;;80.85;33.25;;;-1.70;88.80;;;;;;4978245;28;20078;-77
2021/12/22 02:22:32;;;;;;;72.97;32.10;;;-1.70;88.80;;;;;;4978492;28;20433;-78
2021/12/22 02:25:07;;;;;;;68.60;32.10;;;-1.60;89.20;;;;;;4978669;28;20022;-78
2021/12/22 02:27:39;;;;;;;88.43;34.40;;;-1.60;88.80;;;;;;4978622;28;20041;-78
2021/12/22 02:30:13;;;;;;;62.60;27.30;;;-1.50;88.70;;;;;;4978739;28;20109;-77
2021/12/22 02:35:52;;;;;;;52.80;22.80;;;-1.40;88.40;;;;;;5041298;28;20025;-77
2021/12/22 02:38:18;;;;;;;33.30;14.68;;;-1.30;87.80;;;;;;5039832;28;20455;-78
2021/12/22 02:40:49;;;;;;;34.60;16.80;;;-1.30;87.90;;;;;;5038864;28;20130;-79
2021/12/22 02:43:20;;;;;;;42.05;19.10;;;-1.40;87.90;;;;;;5040040;28;20366;-78
2021/12/22 02:45:51;;;;;;;40.42;18.60;;;-0.30;88.80;;;;;;5048856;28;20025;-79
2021/12/22 02:48:18;;;;;;;31.42;13.18;;;-1.30;88.30;;;;;;5045856;28;20017;-79
2021/12/22 02:50:44;;;;;;;24.85;10.98;;;-1.30;88.30;;;;;;5047174;28;20022;-78
2021/12/22 02:53:14;;;;;;;19.73;9.48;;;-1.30;88.20;;;;;;5046475;28;20068;-78
2021/12/22 02:55:46;;;;;;;20.58;9.18;;;-0.90;89.00;;;;;;5042610;28;20078;-78
2021/12/22 02:58:21;;;;;;;16.15;9.02;;;-1.80;87.20;;;;;;5038922;28;20083;-78
2021/12/22 03:01:22;;;;;;;17.60;8.60;;;-1.20;86.90;;;;;;5039999;28;20029;-80
2021/12/22 03:03:57;;;;;;;22.00;9.75;;;-1.20;86.70;;;;;;5041155;28;20032;-78
2021/12/22 03:06:35;;;;;;;19.08;10.50;;;-1.20;86.70;;;;;;5039481;28;20573;-78
2021/12/22 03:09:15;;;;;;;20.40;10.00;;;-1.20;86.90;;;;;;5039779;28;20522;-79
2021/12/22 03:11:40;;;;;;;18.42;9.30;;;-1.20;87.30;;;;;;5039732;28;20296;-78
2021/12/22 03:14:09;;;;;;;15.38;8.00;;;-0.60;87.40;;;;;;5039985;28;20028;-78
2021/12/22 03:16:35;;;;;;;14.95;7.53;;;-1.20;87.40;;;;;;5039167;28;20110;-79
2021/12/22 03:19:03;;;;;;;17.65;7.57;;;-0.60;87.50;;;;;;5039579;28;20065;-79
2021/12/22 03:21:29;;;;;;;16.52;7.10;;;-1.20;86.60;;;;;;5038938;28;20045;-78
2021/12/22 03:23:56;;;;;;;14.52;7.03;;;-1.10;87.40;;;;;;5040293;28;20130;-78
2021/12/22 03:26:29;;;;;;;15.82;7.80;;;-1.20;87.00;;;;;;5055976;28;20020;-78
2021/12/22 03:28:57;;;;;;;16.25;8.10;;;-0.20;87.00;;;;;;5054040;28;20029;-79
2021/12/22 03:31:32;;;;;;;17.75;8.25;;;-1.20;86.60;;;;;;5056387;28;20074;-79
2021/12/22 03:33:58;;;;;;;20.10;9.18;;;-1.10;87.70;;;;;;5045646;28;20494;-78
2021/12/22 03:36:24;;;;;;;15.15;6.93;;;-1.20;86.90;;;;;;5039296;28;20036;-78
2021/12/22 03:38:50;;;;;;;16.58;9.52;;;-1.30;87.00;;;;;;5038770;28;20025;-78
2021/12/22 03:41:15;;;;;;;18.58;8.00;;;-1.20;87.40;;;;;;5038969;28;20310;-78
2021/12/22 03:43:41;;;;;;;17.38;7.15;;;-1.20;87.40;;;;;;5038917;28;20037;-78
2021/12/22 03:46:07;;;;;;;11.60;6.63;;;-1.20;86.80;;;;;;5038657;28;20024;-79
2021/12/22 03:48:32;;;;;;;16.25;8.15;;;-1.20;86.10;;;;;;5038204;28;20225;-79
2021/12/22 03:51:01;;;;;;;18.90;9.27;;;-1.30;86.80;;;;;;5038685;28;20052;-78
2021/12/22 03:53:27;;;;;;;15.73;7.95;;;-1.30;86.80;;;;;;5038051;28;20127;-78
2021/12/22 03:55:53;;;;;;;20.90;8.98;;;-1.30;87.30;;;;;;5036646;28;20108;-78
2021/12/22 03:58:19;;;;;;;18.63;10.40;;;-1.30;87.50;;;;;;5036921;28;20045;-78
2021/12/22 04:00:45;;;;;;;19.17;9.25;;;-0.90;88.10;;;;;;5037897;28;20077;-78
2021/12/22 04:03:17;;;;;;;17.75;8.70;;;-1.20;87.90;;;;;;5038435;28;20029;-79
2021/12/22 04:05:46;;;;;;;18.85;9.05;;;-1.20;87.60;;;;;;5037919;28;20108;-79
2021/12/22 04:08:15;;;;;;;24.80;11.48;;;-1.20;87.50;;;;;;5038212;28;20021;-78
2021/12/22 04:10:40;;;;;;;39.13;17.90;;;-1.30;87.60;;;;;;5038140;28;20033;-79
2021/12/22 04:13:06;;;;;;;42.10;20.75;;;-1.20;88.90;;;;;;5036568;28;20032;-79
2021/12/22 04:15:34;;;;;;;44.83;21.25;;;-1.20;89.10;;;;;;5037997;28;20620;-79
2021/12/22 04:18:00;;;;;;;45.08;21.38;;;-1.20;89.50;;;;;;5038192;28;20554;-76
2021/12/22 04:20:28;;;;;;;46.45;20.95;;;-1.20;89.70;;;;;;5038098;28;20017;-78
2021/12/22 04:22:54;;;;;;;43.47;21.98;;;-0.40;90.30;;;;;;5038250;28;20147;-78
2021/12/22 04:25:21;;;;;;;42.83;20.70;;;-1.60;90.00;;;;;;5037625;28;20480;-78
2021/12/22 04:28:06;;;;;;;41.72;21.10;;;-1.30;90.20;;;;;;5037861;28;20140;-79
2021/12/22 04:30:34;;;;;;;49.28;22.55;;;-1.20;90.30;;;;;;5038155;28;20089;-78
2021/12/22 04:33:01;;;;;;;49.80;22.40;;;-1.10;90.40;;;;;;5037537;28;20124;-79
2021/12/22 04:35:30;;;;;;;46.42;21.88;;;-1.00;90.20;;;;;;5037528;28;20017;-78
2021/12/22 04:37:55;;;;;;;47.00;21.52;;;-0.90;90.00;;;;;;5037804;28;20048;-78
2021/12/22 04:40:22;;;;;;;44.83;20.88;;;-0.90;89.70;;;;;;5037361;28;20055;-78
2021/12/22 04:42:48;;;;;;;44.08;20.60;;;-0.90;89.40;;;;;;5037694;28;20021;-78
2021/12/22 04:45:15;;;;;;;50.33;22.60;;;-0.80;89.40;;;;;;5037878;28;20067;-78
2021/12/22 04:47:41;;;;;;;46.17;21.95;;;-0.70;89.10;;;;;;5037774;28;20017;-78
2021/12/22 04:50:13;;;;;;;48.65;21.60;;;-0.70;89.50;;;;;;5037909;28;20052;-78
2021/12/22 04:52:49;;;;;;;46.22;20.83;;;-0.60;89.70;;;;;;5037391;28;20240;-78
2021/12/22 04:55:15;;;;;;;;;;;-0.50;89.10;;;;;;5038296;28;20033;-78
2021/12/22 04:57:44;;;;;;;43.85;19.70;;;-0.50;88.80;;;;;;5037550;28;19963;-78
2021/12/22 05:00:12;;;;;;;41.22;19.55;;;-0.50;88.60;;;;;;5037850;28;20079;-78
2021/12/22 05:02:54;;;;;;;45.20;19.60;;;-0.50;88.40;;;;;;5037958;28;20445;-79
2021/12/22 05:05:20;;;;;;;38.80;19.05;;;-1.20;89.10;;;;;;5037712;28;20021;-79
2021/12/22 05:07:47;;;;;;;34.50;17.13;;;-0.40;88.30;;;;;;5037127;28;20079;-79
2021/12/22 05:10:17;;;;;;;37.22;17.27;;;-0.40;87.50;;;;;;5037832;28;20020;-78
2021/12/22 05:12:44;;;;;;;39.03;18.55;;;-0.40;87.10;;;;;;5038256;28;20044;-79
2021/12/22 05:15:10;;;;;;;46.58;21.10;;;-0.40;86.70;;;;;;5041771;28;20229;-78
2021/12/22 05:20:08;;;;;;;47.90;22.48;;;-0.30;87.20;;;;;;5040947;28;20446;-78
2021/12/22 05:22:34;;;;;;;51.30;23.23;;;-0.40;87.40;;;;;;5041021;28;20404;-79
2021/12/22 05:25:02;;;;;;;48.33;22.75;;;-0.40;88.40;;;;;;5041297;28;20574;-79
2021/12/22 05:27:28;;;;;;;53.30;23.42;;;-0.50;87.80;;;;;;5041561;28;20080;-78
2021/12/22 05:29:54;;;;;;;47.65;22.52;;;-0.60;88.20;;;;;;5040968;28;20698;-78
2021/12/22 05:32:23;;;;;;;43.72;21.85;;;-0.60;88.60;;;;;;5040896;28;20116;-79
2021/12/22 05:34:48;;;;;;;47.72;21.65;;;-0.60;88.20;;;;;;5041272;28;20017;-78
2021/12/22 05:37:21;;;;;;;48.50;21.02;;;-0.60;88.50;;;;;;5041081;28;20041;-78
2021/12/22 05:39:47;;;;;;;47.72;22.77;;;-0.70;88.30;;;;;;5041835;28;20087;-80
2021/12/22 05:42:13;;;;;;;42.15;20.25;;;-0.50;88.50;;;;;;5041520;28;20033;-78
2021/12/22 05:44:39;;;;;;;34.83;17.52;;;0.80;89.60;;;;;;5040961;28;20373;-78
2021/12/22 05:47:05;;;;;;;29.13;13.75;;;-0.50;89.10;;;;;;5041551;28;20032;-78
2021/12/22 05:49:31;;;;;;;24.73;12.63;;;-0.40;88.60;;;;;;5041239;28;20556;-78
2021/12/22 05:51:56;;;;;;;25.67;13.32;;;-0.40;87.90;;;;;;5041058;28;20487;-79
2021/12/22 05:54:22;;;;;;;28.25;13.80;;;-0.40;88.00;;;;;;5040654;28;20535;-78
2021/12/22 05:56:48;;;;;;;35.15;17.58;;;-0.40;87.70;;;;;;5040503;28;20236;-79
2021/12/22 05:59:13;;;;;;;36.70;18.67;;;-0.30;87.40;;;;;;5040598;28;20053;-78
2021/12/22 06:01:39;;;;;;;33.72;16.40;;;-0.40;87.60;;;;;;5040771;28;20291;-79
2021/12/22 06:04:06;;;;;;;37.72;15.23;;;-0.30;87.90;;;;;;5038552;28;20319;-79
2021/12/22 06:06:32;;;;;;;29.35;13.98;;;-0.30;87.50;;;;;;5040646;28;20116;-78
2021/12/22 06:08:58;;;;;;;28.48;14.48;;;-0.30;87.70;;;;;;5039663;28;20029;-78
2021/12/22 06:11:23;;;;;;;28.75;12.90;;;-0.30;87.50;;;;;;5049102;28;20044;-78
2021/12/22 06:13:51;;;;;;;34.45;14.25;;;-0.40;87.20;;;;;;5053891;28;20033;-78
2021/12/22 06:16:17;;;;;;;26.55;12.77;;;-0.40;87.70;;;;;;5054272;28;20534;-80
2021/12/22 06:18:47;;;;;;;27.63;12.90;;;-0.40;87.80;;;;;;5055720;28;20033;-78
2021/12/22 06:21:16;;;;;;;32.47;13.95;;;-0.40;87.50;;;;;;5047984;28;20028;-78
2021/12/22 06:23:42;;;;;;;30.08;14.07;;;0.00;87.90;;;;;;5041005;28;20036;-78
2021/12/22 06:26:10;;;;;;;31.08;15.45;;;-0.40;87.90;;;;;;5040857;28;20017;-78
2021/12/22 06:28:38;;;;;;;28.45;15.13;;;-0.40;87.70;;;;;;5041319;28;20029;-78
2021/12/22 06:31:04;;;;;;;24.55;10.98;;;-0.20;87.80;;;;;;5040721;28;20021;-79
2021/12/22 06:33:30;;;;;;;26.25;12.63;;;-0.40;87.00;;;;;;5039237;28;20237;-79
2021/12/22 06:35:56;;;;;;;22.55;11.13;;;-0.40;87.50;;;;;;5040280;28;20399;-78
2021/12/22 06:38:22;;;;;;;24.23;11.85;;;-0.50;87.70;;;;;;5040775;28;20453;-78
2021/12/22 06:40:48;;;;;;;27.60;14.00;;;0.50;88.30;;;;;;5041054;28;20647;-80
2021/12/22 06:43:15;;;;;;;39.92;17.67;;;-0.40;88.10;;;;;;5040510;28;20021;-78
2021/12/22 06:45:41;;;;;;;30.05;15.38;;;-0.40;88.90;;;;;;5040379;28;20021;-79
2021/12/22 06:48:07;;;;;;;31.27;15.13;;;-0.40;88.90;;;;;;5040370;28;20025;-78
2021/12/22 06:50:33;;;;;;;43.45;17.08;;;-0.50;88.50;;;;;;5039909;28;20028;-79
2021/12/22 06:52:58;;;;;;;61.28;23.92;;;-0.50;88.30;;;;;;5039770;28;20041;-78
2021/12/22 06:55:25;;;;;;;68.72;28.00;;;-0.40;88.10;;;;;;5038379;28;20079;-79
2021/12/22 06:57:51;;;;;;;68.60;26.90;;;-0.40;88.60;;;;;;5038379;28;20454;-78
2021/12/22 07:00:17;;;;;;;41.75;17.85;;;-0.40;88.30;;;;;;5040355;28;20025;-78
2021/12/22 07:02:43;;;;;;;49.17;20.20;;;-0.40;88.10;;;;;;5038477;28;20087;-78
2021/12/22 07:05:11;;;;;;;33.83;15.98;;;-0.40;88.10;;;;;;5040036;28;20321;-78
2021/12/22 07:07:38;;;;;;;44.05;18.02;;;-0.40;88.70;;;;;;5039978;28;20017;-78
2021/12/22 07:10:07;;;;;;;37.78;16.98;;;1.20;89.20;;;;;;5040129;28;20048;-79
2021/12/22 07:12:41;;;;;;;58.13;25.58;;;-0.20;88.10;;;;;;5038248;28;20021;-78
2021/12/22 07:15:09;;;;;;;51.45;21.23;;;-0.20;88.00;;;;;;5039688;28;20472;-79
2021/12/22 07:17:36;;;;;;;40.95;18.52;;;-0.20;88.10;;;;;;5039463;28;20029;-78
2021/12/22 07:20:06;;;;;;;38.80;18.23;;;-0.20;87.90;;;;;;5039155;28;20029;-77
2021/12/22 07:22:36;;;;;;;33.67;16.63;;;0.30;88.00;;;;;;5039150;28;20090;-78
2021/12/22 07:25:03;;;;;;;40.85;18.80;;;-0.20;87.90;;;;;;5039747;28;20084;-78
2021/12/22 07:27:29;;;;;;;32.40;16.15;;;-0.20;87.90;;;;;;5039854;28;20060;-78
2021/12/22 07:29:55;;;;;;;32.35;16.70;;;-0.10;88.30;;;;;;5039933;28;20041;-79
2021/12/22 07:32:21;;;;;;;40.85;18.20;;;-0.10;88.00;;;;;;5039520;28;20063;-78
2021/12/22 07:34:56;;;;;;;26.83;12.77;;;-0.10;87.80;;;;;;5039517;28;20479;-78
2021/12/22 07:37:38;;;;;;;30.65;15.43;;;-0.10;87.60;;;;;;5037568;28;20295;-78
2021/12/22 07:40:05;;;;;;;27.98;13.38;;;-0.10;87.40;;;;;;5038187;28;20029;-79
2021/12/22 07:42:31;;;;;;;29.92;13.70;;;-0.10;87.70;;;;;;5038770;28;20511;-79
2021/12/22 07:44:57;;;;;;;24.38;13.05;;;-0.10;87.50;;;;;;5038736;28;20230;-78
2021/12/22 07:47:22;;;;;;;25.75;12.35;;;0.00;87.80;;;;;;5039167;28;20967;-78
2021/12/22 07:49:48;;;;;;;26.90;13.20;;;0.00;87.80;;;;;;5039023;28;20025;-78
2021/12/22 07:52:14;;;;;;;24.13;11.68;;;0.10;87.40;;;;;;5038373;28;20344;-78
2021/12/22 07:54:39;;;;;;;27.08;12.10;;;0.10;87.10;;;;;;5037045;28;20036;-78
2021/12/22 07:57:08;;;;;;;24.58;11.52;;;0.20;86.50;;;;;;5038643;28;20033;-78
2021/12/22 07:59:34;;;;;;;21.63;10.65;;;0.10;86.20;;;;;;5038855;28;20100;-79
2021/12/22 08:02:00;;;;;;;18.48;10.40;;;0.20;86.30;;;;;;5039049;28;20096;-80
2021/12/22 08:04:29;;;;;;;23.58;11.02;;;1.20;86.70;;;;;;5037954;28;20708;-79
2021/12/22 08:06:55;;;;;;;25.63;10.52;;;0.20;86.00;;;;;;5038663;28;20021;-79
2021/12/22 08:09:25;;;;;;;26.90;12.75;;;0.30;86.10;;;;;;5038180;28;20028;-78
2021/12/22 08:11:53;;;;;;;29.77;13.52;;;0.40;85.60;;;;;;5038704;28;20068;-79
2021/12/22 08:14:19;;;;;;;38.65;18.02;;;0.50;85.60;;;;;;5038723;28;20028;-79
2021/12/22 08:16:45;;;;;;;50.83;23.15;;;0.60;85.80;;;;;;5039973;28;20017;-78
2021/12/22 08:19:10;;;;;;;59.35;25.70;;;2.50;85.80;;;;;;5040988;28;20020;-80
2021/12/22 08:21:38;;;;;;;47.17;18.90;;;0.60;84.60;;;;;;5040765;28;20091;-79
2021/12/22 08:24:04;;;;;;;44.92;19.88;;;0.70;84.10;;;;;;5040132;28;20028;-79
2021/12/22 08:26:33;;;;;;;98.97;38.00;;;0.70;84.30;;;;;;5039557;28;20567;-78
2021/12/22 08:28:59;;;;;;;62.28;25.42;;;0.80;84.10;;;;;;5039830;28;20020;-79
2021/12/22 08:31:27;;;;;;;72.50;28.50;;;0.80;83.60;;;;;;5040363;28;20664;-79
2021/12/22 08:33:54;;;;;;;29.77;14.00;;;0.80;83.20;;;;;;5039820;28;20028;-79
2021/12/22 08:39:10;;;;;;;45.38;17.85;;;0.90;83.40;;;;;;5038846;28;20063;-78
2021/12/22 08:41:43;;;;;;;37.17;17.13;;;1.00;82.80;;;;;;5039647;28;20424;-79
2021/12/22 08:44:10;;;;;;;74.47;30.42;;;1.00;82.10;;;;;;5039500;28;20182;-80
2021/12/22 08:46:42;;;;;;;56.75;23.85;;;1.10;82.00;;;;;;5038577;28;20033;-79
2021/12/22 08:49:08;;;;;;;36.13;17.23;;;1.20;82.00;;;;;;5043870;28;20084;-79
2021/12/22 08:51:36;;;;;;;34.15;16.55;;;1.30;81.80;;;;;;5045359;28;20032;-79
2021/12/22 08:54:02;;;;;;;43.10;24.42;;;1.40;81.10;;;;;;5046104;28;20048;-79
2021/12/22 08:56:29;;;;;;;39.03;20.55;;;1.40;80.70;;;;;;5046171;28;20017;-79
2021/12/22 08:58:56;;;;;;;37.15;18.13;;;1.50;81.30;;;;;;5046979;28;20020;-80
2021/12/22 09:01:23;;;;;;;41.42;17.02;;;1.60;79.30;;;;;;5054235;28;20049;-79
2021/12/22 09:03:52;;;;;;;37.83;16.75;;;1.70;78.50;;;;;;5053527;28;20119;-79
2021/12/22 09:06:21;;;;;;;35.00;17.23;;;1.70;78.20;;;;;;5057925;28;20643;-79
2021/12/22 09:08:47;;;;;;;36.28;17.08;;;1.70;76.90;;;;;;5051835;28;20053;-80
2021/12/22 09:11:16;;;;;;;33.33;16.75;;;2.00;76.10;;;;;;5048674;28;20049;-80
2021/12/22 09:13:42;;;;;;;31.27;14.57;;;2.10;75.80;;;;;;5052927;28;20032;-78
2021/12/22 09:16:10;;;;;;;32.08;12.50;;;2.10;75.50;;;;;;5050641;28;20092;-80
2021/12/22 09:18:36;;;;;;;25.67;12.95;;;2.30;73.90;;;;;;5045948;28;20019;-79
2021/12/22 09:21:04;;;;;;;29.92;13.85;;;2.30;74.00;;;;;;5044223;28;20717;-79
2021/12/22 09:23:29;;;;;;;29.80;15.23;;;2.50;73.70;;;;;;5044211;28;20021;-80
2021/12/22 09:25:55;;;;;;;35.40;18.08;;;2.50;72.90;;;;;;5043571;28;20025;-79
2021/12/22 09:28:21;;;;;;;41.03;20.35;;;2.50;72.70;;;;;;5042693;28;20096;-79
2021/12/22 09:30:47;;;;;;;46.00;20.45;;;2.50;72.70;;;;;;5045053;28;20045;-78
2021/12/22 09:33:15;;;;;;;52.65;23.63;;;2.60;73.10;;;;;;5044228;28;20025;-78
2021/12/22 09:35:43;;;;;;;47.03;22.50;;;2.40;72.90;;;;;;5042469;28;20028;-80
2021/12/22 09:38:09;;;;;;;46.72;23.05;;;2.30;73.60;;;;;;5042489;28;20621;-79
2021/12/22 09:40:36;;;;;;;79.18;37.55;;;2.20;74.70;;;;;;5042871;28;20018;-79
2021/12/22 09:43:02;;;;;;;94.55;45.38;;;2.10;76.50;;;;;;5042671;28;20025;-78
2021/12/22 09:45:28;;;;;;;90.40;43.05;;;1.90;78.00;;;;;;5042487;28;20070;-78
2021/12/22 09:48:19;;;;;;;99.10;45.25;;;1.90;78.70;;;;;;5042417;28;20092;-80
2021/12/22 09:53:23;;;;;;;98.30;48.47;;;1.70;78.90;;;;;;5042551;28;20551;-80
2021/12/22 09:55:49;;;;;;;105.72;52.38;;;2.50;79.40;;;;;;5051557;28;20021;-79
2021/12/22 09:58:15;;;;;;;105.03;50.95;;;1.70;80.40;;;;;;5045806;28;20025;-79
2021/12/22 10:00:43;;;;;;;107.25;49.45;;;1.90;81.30;;;;;;5044737;28;20195;-81
2021/12/22 10:03:09;;;;;;;98.82;50.10;;;1.60;80.20;;;;;;5043908;28;20028;-78
2021/12/22 10:05:36;;;;;;;102.95;50.42;;;1.60;80.20;;;;;;5041932;28;20098;-79
2021/12/22 10:08:18;;;;;;;107.20;51.30;;;1.50;79.90;;;;;;5041609;28;20017;-79
2021/12/22 10:11:00;;;;;;;102.95;51.08;;;1.60;80.30;;;;;;5042480;28;20021;-79
2021/12/22 10:13:28;;;;;;;105.90;51.85;;;1.60;80.00;;;;;;5042283;28;20109;-77
2021/12/22 10:15:55;;;;;;;105.18;52.33;;;1.70;80.00;;;;;;5040699;28;20028;-77
2021/12/22 10:18:24;;;;;;;108.00;53.38;;;1.60;79.70;;;;;;5040126;28;20456;-77
2021/12/22 10:20:51;;;;;;;109.15;51.70;;;1.80;79.70;;;;;;5040609;28;20009;-76
2021/12/22 10:23:20;;;;;;;112.70;52.72;;;1.80;79.50;;;;;;5039515;28;20033;-79
2021/12/22 10:25:53;;;;;;;102.90;50.35;;;1.80;79.70;;;;;;5043272;28;20034;-80
2021/12/22 10:28:23;;;;;;;101.22;49.83;;;1.80;79.70;;;;;;5043616;28;20025;-79
2021/12/22 10:30:58;;;;;;;157.45;65.47;;;1.80;79.40;;;;;;5043816;28;20017;-80
2021/12/22 10:33:27;;;;;;;116.70;53.72;;;1.90;79.10;;;;;;5045702;28;20025;-79
2021/12/22 10:36:20;;;;;;;124.75;57.70;;;1.90;78.80;;;;;;5045467;28;20048;-80
2021/12/22 10:39:00;;;;;;;111.30;53.67;;;2.40;79.20;;;;;;5043733;28;20063;-79
2021/12/22 10:41:31;;;;;;;108.10;50.88;;;2.10;78.80;;;;;;5042532;28;20108;-80
2021/12/22 10:43:57;;;;;;;98.95;51.33;;;2.10;78.40;;;;;;5044640;28;20029;-78
2021/12/22 10:46:32;;;;;;;99.63;49.92;;;2.20;77.40;;;;;;5045571;28;20012;-79
2021/12/22 10:49:17;;;;;;;100.75;48.50;;;2.10;77.70;;;;;;5044583;28;20029;-79
2021/12/22 10:51:55;;;;;;;100.90;49.83;;;2.10;77.70;;;;;;5043195;28;20009;-81
2021/12/22 10:54:30;;;;;;;100.70;50.33;;;2.10;77.70;;;;;;5042112;28;20041;-81
2021/12/22 10:56:58;;;;;;;103.88;50.28;;;2.20;77.90;;;;;;5041572;28;20028;-79
2021/12/22 10:59:24;;;;;;;97.03;48.90;;;2.20;77.50;;;;;;5047136;28;20116;-79
2021/12/22 11:01:54;;;;;;;98.22;49.67;;;2.30;77.60;;;;;;5041579;28;20184;-79
2021/12/22 11:04:29;;;;;;;93.97;47.35;;;2.40;77.30;;;;;;5043788;28;20021;-80
2021/12/22 11:07:04;;;;;;;94.32;46.58;;;2.50;76.20;;;;;;5043050;28;20056;-81
2021/12/22 11:09:34;;;;;;;95.35;48.65;;;2.60;75.60;;;;;;5044395;28;20017;-78
2021/12/22 11:12:00;;;;;;;91.00;47.85;;;2.80;75.40;;;;;;5043487;28;20682;-79
2021/12/22 11:14:33;;;;;;;109.60;52.15;;;2.90;75.00;;;;;;5046012;28;20081;-79
2021/12/22 11:17:21;;;;;;;98.78;51.97;;;3.10;74.70;;;;;;5043637;28;20024;-79
2021/12/22 11:19:57;;;;;;;155.75;63.25;;;3.30;73.40;;;;;;5041110;28;20391;-80
2021/12/22 11:22:46;;;;;;;226.43;83.28;;;3.30;72.60;;;;;;5044263;28;20009;-80
2021/12/22 11:25:12;;;;;;;175.20;69.10;;;3.40;72.60;;;;;;5042455;28;20087;-78
2021/12/22 11:27:39;;;;;;;225.07;83.35;;;3.40;71.90;;;;;;5042537;28;20126;-79
2021/12/22 11:30:06;;;;;;;357.95;130.60;;;3.50;72.00;;;;;;5044772;28;20024;-80
2021/12/22 11:32:32;;;;;;;179.90;69.97;;;3.50;71.00;;;;;;5044375;28;20126;-80
2021/12/22 11:35:06;;;;;;;91.35;46.85;;;3.50;70.90;;;;;;5045437;28;20032;-78
2021/12/22 11:37:36;;;;;;;102.68;49.78;;;3.30;70.50;;;;;;5044341;28;20025;-79
2021/12/22 11:40:04;;;;;;;85.78;43.72;;;3.10;71.70;;;;;;5042841;28;20094;-79
2021/12/22 11:42:37;;;;;;;87.47;45.38;;;2.90;73.00;;;;;;5043187;28;20017;-79
2021/12/22 11:45:18;;;;;;;80.05;42.95;;;3.00;73.50;;;;;;5044788;28;20406;-80
2021/12/22 11:47:49;;;;;;;80.65;41.78;;;2.80;73.60;;;;;;5041617;28;20033;-79
2021/12/22 11:50:19;;;;;;;105.57;51.38;;;2.90;73.40;;;;;;5044021;28;20674;-79
2021/12/22 11:53:14;;;;;;;83.57;41.65;;;2.80;73.40;;;;;;5044286;28;20111;-78
2021/12/22 11:55:45;;;;;;;80.22;40.20;;;2.60;73.30;;;;;;5044739;28;20021;-78
2021/12/22 11:58:12;;;;;;;76.00;40.00;;;2.60;74.70;;;;;;5042509;28;20029;-80
2021/12/22 12:00:42;;;;;;;80.78;40.00;;;2.60;74.60;;;;;;5043308;28;20140;-81
2021/12/22 12:03:28;;;;;;;72.40;39.85;;;2.60;75.30;;;;;;5043434;28;20224;-80
2021/12/22 12:06:14;;;;;;;68.95;37.88;;;2.60;73.50;;;;;;5044313;28;20120;-81
2021/12/22 12:08:48;;;;;;;73.45;38.58;;;2.60;73.40;;;;;;5052017;28;20013;-79
2021/12/22 12:11:19;;;;;;;79.85;40.15;;;2.60;74.30;;;;;;5044258;28;20035;-79
2021/12/22 12:22:19;;;;;;;77.50;39.20;;;2.60;75.20;;;;;;5044960;28;20292;-80
2021/12/22 12:25:08;;;;;;;103.63;50.90;;;3.00;75.30;;;;;;5043597;28;20036;-80
2021/12/22 12:27:43;;;;;;;76.55;39.55;;;2.80;76.20;;;;;;5047155;28;20088;-78
2021/12/22 12:30:11;;;;;;;77.00;37.45;;;2.80;75.60;;;;;;5052371;28;20083;-79
2021/12/22 12:32:40;;;;;;;77.70;38.95;;;2.80;75.00;;;;;;5052904;28;20024;-80
2021/12/22 12:35:22;;;;;;;74.03;37.90;;;2.90;74.90;;;;;;5051416;28;20029;-79
2021/12/22 12:38:14;;;;;;;84.50;42.28;;;2.90;75.90;;;;;;5044502;28;20103;-80
2021/12/22 12:40:59;;;;;;;127.88;55.85;;;3.00;77.60;;;;;;5044859;28;20204;-79
2021/12/22 12:43:44;;;;;;;239.75;96.95;;;3.00;76.30;;;;;;5045988;28;20047;-80
2021/12/22 12:46:37;;;;;;;174.80;69.18;;;3.00;76.50;;;;;;5045734;28;20487;-79
2021/12/22 12:49:03;;;;;;;132.63;56.70;;;2.90;75.70;;;;;;5042112;28;20071;-78
2021/12/22 12:51:42;;;;;;;95.88;47.25;;;3.00;76.20;;;;;;5044072;28;20025;-78
2021/12/22 12:54:17;;;;;;;84.47;41.17;;;3.00;76.00;;;;;;5043890;28;20053;-79
2021/12/22 12:56:51;;;;;;;72.25;37.22;;;3.00;74.40;;;;;;5044312;28;20108;-79
2021/12/22 12:59:25;;;;;;;71.72;36.92;;;3.00;74.10;;;;;;5044982;28;20032;-81
2021/12/22 13:01:50;;;;;;;71.95;37.15;;;3.00;74.00;;;;;;5043942;28;20450;-79
2021/12/22 13:04:28;;;;;;;73.05;39.97;;;2.90;75.50;;;;;;5040948;28;20021;-80
2021/12/22 13:06:55;;;;;;;70.30;34.85;;;2.90;73.60;;;;;;5041577;28;20325;-78
2021/12/22 13:09:24;;;;;;;71.13;35.88;;;2.70;73.20;;;;;;5042521;28;20021;-80
2021/12/22 13:12:20;;;;;;;80.45;38.92;;;2.70;73.50;;;;;;5044104;28;20342;-79